sensor_id;sensor_type;location;lat;lon;timestamp;temperature;humidity
17697;DHT22;8967;47.984;7.842;2023-04-25T00:02:28;11.90;85.60
17697;DHT22;8967;47.984;7.842;2023-04-25T00:04:57;11.90;85.70
17697;DHT22;8967;47.984;7.842;2023-04-25T00:07:25;11.90;85.40
17697;DHT22;8967;47.984;7.842;2023-04-25T00:09:52;11.80;85.40
17697;DHT22;8967;47.984;7.842;2023-04-25T00:12:21;11.80;85.40
17697;DHT22;8967;47.984;7.842;2023-04-25T00:14:50;11.80;85.80
17697;DHT22;8967;47.984;7.842;2023-04-25T00:17:16;11.80;85.80
17697;DHT22;8967;47.984;7.842;2023-04-25T00:19:46;11.80;85.70
17697;DHT22;8967;47.984;7.842;2023-04-25T00:22:16;11.80;85.90
17697;DHT22;8967;47.984;7.842;2023-04-25T00:24:43;11.80;86.10
17697;DHT22;8967;47.984;7.842;2023-04-25T00:27:09;11.80;86.30
17697;DHT22;8967;47.984;7.842;2023-04-25T00:29:36;11.80;86.70
17697;DHT22;8967;47.984;7.842;2023-04-25T00:32:05;11.70;86.90
17697;DHT22;8967;47.984;7.842;2023-04-25T00:34:31;11.70;87.90
17697;DHT22;8967;47.984;7.842;2023-04-25T00:36:59;11.70;87.20
17697;DHT22;8967;47.984;7.842;2023-04-25T00:39:27;11.70;87.30
17697;DHT22;8967;47.984;7.842;2023-04-25T00:41:54;11.70;87.50
17697;DHT22;8967;47.984;7.842;2023-04-25T00:44:21;11.70;87.90
17697;DHT22;8967;47.984;7.842;2023-04-25T00:46:49;11.70;87.90
17697;DHT22;8967;47.984;7.842;2023-04-25T00:49:17;11.60;87.90
17697;DHT22;8967;47.984;7.842;2023-04-25T00:51:44;11.60;88.00
17697;DHT22;8967;47.984;7.842;2023-04-25T00:54:12;11.50;88.30
17697;DHT22;8967;47.984;7.842;2023-04-25T00:56:41;11.50;88.70
17697;DHT22;8967;47.984;7.842;2023-04-25T00:59:09;11.50;89.00
17697;DHT22;8967;47.984;7.842;2023-04-25T01:01:39;11.50;89.40
17697;DHT22;8967;47.984;7.842;2023-04-25T01:04:05;11.40;89.60
17697;DHT22;8967;47.984;7.842;2023-04-25T01:06:34;11.40;89.80
17697;DHT22;8967;47.984;7.842;2023-04-25T01:09:04;11.40;90.00
17697;DHT22;8967;47.984;7.842;2023-04-25T01:11:31;11.40;90.10
17697;DHT22;8967;47.984;7.842;2023-04-25T01:13:58;11.30;90.20
17697;DHT22;8967;47.984;7.842;2023-04-25T01:16:25;11.30;90.50
17697;DHT22;8967;47.984;7.842;2023-04-25T01:18:54;11.30;90.40
17697;DHT22;8967;47.984;7.842;2023-04-25T01:21:23;11.30;90.60
17697;DHT22;8967;47.984;7.842;2023-04-25T01:23:52;11.20;90.60
17697;DHT22;8967;47.984;7.842;2023-04-25T01:26:21;11.20;90.70
17697;DHT22;8967;47.984;7.842;2023-04-25T01:28:51;11.20;90.80
17697;DHT22;8967;47.984;7.842;2023-04-25T01:31:19;11.20;91.00
17697;DHT22;8967;47.984;7.842;2023-04-25T01:33:47;11.20;91.00
17697;DHT22;8967;47.984;7.842;2023-04-25T01:36:14;11.10;91.10
17697;DHT22;8967;47.984;7.842;2023-04-25T01:38:43;11.10;91.20
17697;DHT22;8967;47.984;7.842;2023-04-25T01:41:12;11.10;91.30
17697;DHT22;8967;47.984;7.842;2023-04-25T01:43:39;11.10;91.30
17697;DHT22;8967;47.984;7.842;2023-04-25T01:46:06;11.10;91.50
17697;DHT22;8967;47.984;7.842;2023-04-25T01:48:33;11.10;91.50
17697;DHT22;8967;47.984;7.842;2023-04-25T01:51:03;11.10;91.60
17697;DHT22;8967;47.984;7.842;2023-04-25T01:53:30;11.10;91.50
17697;DHT22;8967;47.984;7.842;2023-04-25T01:56:00;11.10;91.50
17697;DHT22;8967;47.984;7.842;2023-04-25T01:58:32;11.10;91.60
17697;DHT22;8967;47.984;7.842;2023-04-25T02:01:31;11.10;91.60
17697;DHT22;8967;47.984;7.842;2023-04-25T02:04:12;11.10;91.60
17697;DHT22;8967;47.984;7.842;2023-04-25T02:06:40;11.10;91.80
17697;DHT22;8967;47.984;7.842;2023-04-25T02:09:07;11.10;91.70
17697;DHT22;8967;47.984;7.842;2023-04-25T02:11:40;11.10;91.70
17697;DHT22;8967;47.984;7.842;2023-04-25T02:14:25;11.10;91.70
17697;DHT22;8967;47.984;7.842;2023-04-25T02:16:59;11.10;91.80
17697;DHT22;8967;47.984;7.842;2023-04-25T02:19:29;11.10;91.70
17697;DHT22;8967;47.984;7.842;2023-04-25T02:21:56;11.10;91.70
17697;DHT22;8967;47.984;7.842;2023-04-25T02:24:24;11.10;91.60
17697;DHT22;8967;47.984;7.842;2023-04-25T02:26:52;11.10;91.60
17697;DHT22;8967;47.984;7.842;2023-04-25T02:29:21;11.10;91.70
17697;DHT22;8967;47.984;7.842;2023-04-25T02:31:47;11.10;91.70
17697;DHT22;8967;47.984;7.842;2023-04-25T02:34:17;11.10;91.80
17697;DHT22;8967;47.984;7.842;2023-04-25T02:36:44;11.10;91.80
17697;DHT22;8967;47.984;7.842;2023-04-25T02:39:11;11.10;91.90
17697;DHT22;8967;47.984;7.842;2023-04-25T02:41:40;11.10;91.80
17697;DHT22;8967;47.984;7.842;2023-04-25T02:44:08;11.10;91.80
17697;DHT22;8967;47.984;7.842;2023-04-25T02:46:37;11.10;91.70
17697;DHT22;8967;47.984;7.842;2023-04-25T02:49:06;11.10;92.00
17697;DHT22;8967;47.984;7.842;2023-04-25T02:51:34;11.10;91.70
17697;DHT22;8967;47.984;7.842;2023-04-25T02:54:01;11.10;91.70
17697;DHT22;8967;47.984;7.842;2023-04-25T02:56:28;11.20;91.80
17697;DHT22;8967;47.984;7.842;2023-04-25T02:58:58;11.20;91.70
17697;DHT22;8967;47.984;7.842;2023-04-25T03:01:26;11.20;91.70
17697;DHT22;8967;47.984;7.842;2023-04-25T03:03:53;11.20;91.60
17697;DHT22;8967;47.984;7.842;2023-04-25T03:06:20;11.20;91.60
17697;DHT22;8967;47.984;7.842;2023-04-25T03:08:47;11.20;91.50
17697;DHT22;8967;47.984;7.842;2023-04-25T03:11:14;11.20;91.70
17697;DHT22;8967;47.984;7.842;2023-04-25T03:13:42;11.10;91.60
17697;DHT22;8967;47.984;7.842;2023-04-25T03:16:11;11.20;91.70
17697;DHT22;8967;47.984;7.842;2023-04-25T03:18:39;11.10;91.50
17697;DHT22;8967;47.984;7.842;2023-04-25T03:21:06;11.20;91.50
17697;DHT22;8967;47.984;7.842;2023-04-25T03:23:33;11.20;91.60
17697;DHT22;8967;47.984;7.842;2023-04-25T03:26:00;11.20;91.50
17697;DHT22;8967;47.984;7.842;2023-04-25T03:28:27;11.20;91.30
17697;DHT22;8967;47.984;7.842;2023-04-25T03:30:56;11.20;91.20
17697;DHT22;8967;47.984;7.842;2023-04-25T03:33:25;11.20;91.20
17697;DHT22;8967;47.984;7.842;2023-04-25T03:35:53;11.20;91.00
17697;DHT22;8967;47.984;7.842;2023-04-25T03:38:20;11.10;90.80
17697;DHT22;8967;47.984;7.842;2023-04-25T03:40:47;11.10;90.70
17697;DHT22;8967;47.984;7.842;2023-04-25T03:43:25;11.10;91.10
17697;DHT22;8967;47.984;7.842;2023-04-25T03:45:58;11.10;91.00
17697;DHT22;8967;47.984;7.842;2023-04-25T03:48:25;11.10;90.70
17697;DHT22;8967;47.984;7.842;2023-04-25T03:50:55;11.10;90.60
17697;DHT22;8967;47.984;7.842;2023-04-25T03:53:24;11.00;90.40
17697;DHT22;8967;47.984;7.842;2023-04-25T03:56:09;11.00;90.60
17697;DHT22;8967;47.984;7.842;2023-04-25T03:58:38;11.00;90.60
17697;DHT22;8967;47.984;7.842;2023-04-25T04:01:06;10.90;90.50
17697;DHT22;8967;47.984;7.842;2023-04-25T04:03:36;10.80;90.90
17697;DHT22;8967;47.984;7.842;2023-04-25T04:06:05;10.80;90.70
17697;DHT22;8967;47.984;7.842;2023-04-25T04:08:36;10.80;90.80
17697;DHT22;8967;47.984;7.842;2023-04-25T04:11:03;10.70;90.80
17697;DHT22;8967;47.984;7.842;2023-04-25T04:13:31;10.70;90.90
17697;DHT22;8967;47.984;7.842;2023-04-25T04:16:01;10.70;90.90
17697;DHT22;8967;47.984;7.842;2023-04-25T04:18:30;10.60;91.00
17697;DHT22;8967;47.984;7.842;2023-04-25T04:20:58;10.60;91.10
17697;DHT22;8967;47.984;7.842;2023-04-25T04:23:29;10.60;91.20
17697;DHT22;8967;47.984;7.842;2023-04-25T04:25:57;10.50;91.30
17697;DHT22;8967;47.984;7.842;2023-04-25T04:28:24;10.50;91.40
17697;DHT22;8967;47.984;7.842;2023-04-25T04:31:15;10.50;91.50
17697;DHT22;8967;47.984;7.842;2023-04-25T04:33:43;10.50;91.60
17697;DHT22;8967;47.984;7.842;2023-04-25T04:36:11;10.40;91.70
17697;DHT22;8967;47.984;7.842;2023-04-25T04:38:40;10.40;91.80
17697;DHT22;8967;47.984;7.842;2023-04-25T04:41:11;10.40;91.90
17697;DHT22;8967;47.984;7.842;2023-04-25T04:43:49;10.40;92.00
17697;DHT22;8967;47.984;7.842;2023-04-25T04:46:30;10.30;92.00
17697;DHT22;8967;47.984;7.842;2023-04-25T04:49:29;10.30;92.10
17697;DHT22;8967;47.984;7.842;2023-04-25T04:52:17;10.30;92.30
17697;DHT22;8967;47.984;7.842;2023-04-25T04:54:56;10.30;92.40
17697;DHT22;8967;47.984;7.842;2023-04-25T04:57:34;10.30;92.40
17697;DHT22;8967;47.984;7.842;2023-04-25T05:00:21;10.40;92.70
17697;DHT22;8967;47.984;7.842;2023-04-25T05:02:51;10.40;92.90
17697;DHT22;8967;47.984;7.842;2023-04-25T05:05:36;10.40;92.80
17697;DHT22;8967;47.984;7.842;2023-04-25T05:08:11;10.40;92.90
17697;DHT22;8967;47.984;7.842;2023-04-25T05:10:59;10.50;93.00
17697;DHT22;8967;47.984;7.842;2023-04-25T05:13:43;10.50;93.20
17697;DHT22;8967;47.984;7.842;2023-04-25T05:16:43;10.50;93.40
17697;DHT22;8967;47.984;7.842;2023-04-25T05:19:50;10.50;93.70
17697;DHT22;8967;47.984;7.842;2023-04-25T05:22:35;10.50;94.10
17697;DHT22;8967;47.984;7.842;2023-04-25T05:25:17;10.50;94.80
17697;DHT22;8967;47.984;7.842;2023-04-25T05:28:07;10.60;95.40
17697;DHT22;8967;47.984;7.842;2023-04-25T05:30:43;10.60;96.20
17697;DHT22;8967;47.984;7.842;2023-04-25T05:33:16;10.60;96.70
17697;DHT22;8967;47.984;7.842;2023-04-25T05:35:44;10.60;97.30
17697;DHT22;8967;47.984;7.842;2023-04-25T05:38:11;10.60;98.00
17697;DHT22;8967;47.984;7.842;2023-04-25T05:40:57;10.50;98.30
17697;DHT22;8967;47.984;7.842;2023-04-25T05:43:42;10.50;98.60
17697;DHT22;8967;47.984;7.842;2023-04-25T05:46:35;10.50;98.90
17697;DHT22;8967;47.984;7.842;2023-04-25T05:49:21;10.40;99.50
17697;DHT22;8967;47.984;7.842;2023-04-25T05:52:23;10.40;99.90
17697;DHT22;8967;47.984;7.842;2023-04-25T05:55:09;10.30;99.90
17697;DHT22;8967;47.984;7.842;2023-04-25T05:57:36;10.30;99.90
17697;DHT22;8967;47.984;7.842;2023-04-25T06:00:10;10.30;99.90
17697;DHT22;8967;47.984;7.842;2023-04-25T06:02:40;10.30;99.90
17697;DHT22;8967;47.984;7.842;2023-04-25T06:05:08;10.20;99.90
17697;DHT22;8967;47.984;7.842;2023-04-25T06:07:38;10.20;99.90
17697;DHT22;8967;47.984;7.842;2023-04-25T06:10:08;10.20;99.90
17697;DHT22;8967;47.984;7.842;2023-04-25T06:12:35;10.10;99.90
17697;DHT22;8967;47.984;7.842;2023-04-25T06:15:04;10.10;99.90
17697;DHT22;8967;47.984;7.842;2023-04-25T06:17:33;10.10;99.90
17697;DHT22;8967;47.984;7.842;2023-04-25T06:20:01;10.10;99.90
17697;DHT22;8967;47.984;7.842;2023-04-25T06:22:31;10.00;99.90
17697;DHT22;8967;47.984;7.842;2023-04-25T06:25:00;10.00;99.90
17697;DHT22;8967;47.984;7.842;2023-04-25T06:27:29;10.00;99.90
17697;DHT22;8967;47.984;7.842;2023-04-25T06:29:59;10.00;99.90
17697;DHT22;8967;47.984;7.842;2023-04-25T06:32:26;10.00;99.90
17697;DHT22;8967;47.984;7.842;2023-04-25T06:34:59;9.90;99.90
17697;DHT22;8967;47.984;7.842;2023-04-25T06:37:25;9.90;99.90
17697;DHT22;8967;47.984;7.842;2023-04-25T06:39:53;9.80;99.90
17697;DHT22;8967;47.984;7.842;2023-04-25T06:42:22;9.80;99.90
17697;DHT22;8967;47.984;7.842;2023-04-25T06:44:56;9.70;99.90
17697;DHT22;8967;47.984;7.842;2023-04-25T06:47:23;9.70;99.90
17697;DHT22;8967;47.984;7.842;2023-04-25T06:49:50;9.70;99.90
17697;DHT22;8967;47.984;7.842;2023-04-25T06:52:18;9.70;99.90
17697;DHT22;8967;47.984;7.842;2023-04-25T06:54:49;9.70;99.90
17697;DHT22;8967;47.984;7.842;2023-04-25T06:57:36;9.80;99.90
17697;DHT22;8967;47.984;7.842;2023-04-25T07:00:22;9.80;99.90
17697;DHT22;8967;47.984;7.842;2023-04-25T07:02:53;9.80;99.90
17697;DHT22;8967;47.984;7.842;2023-04-25T07:05:20;9.80;99.90
17697;DHT22;8967;47.984;7.842;2023-04-25T07:07:48;9.80;99.90
17697;DHT22;8967;47.984;7.842;2023-04-25T07:10:15;9.80;99.90
17697;DHT22;8967;47.984;7.842;2023-04-25T07:12:42;9.80;99.90
17697;DHT22;8967;47.984;7.842;2023-04-25T07:15:09;9.80;99.90
17697;DHT22;8967;47.984;7.842;2023-04-25T07:17:39;9.90;99.90
17697;DHT22;8967;47.984;7.842;2023-04-25T07:20:07;9.90;99.90
17697;DHT22;8967;47.984;7.842;2023-04-25T07:22:35;9.90;99.90
17697;DHT22;8967;47.984;7.842;2023-04-25T07:25:06;9.90;99.90
17697;DHT22;8967;47.984;7.842;2023-04-25T07:27:34;9.90;99.90
17697;DHT22;8967;47.984;7.842;2023-04-25T07:30:08;9.90;99.90
17697;DHT22;8967;47.984;7.842;2023-04-25T07:32:35;9.90;99.90
17697;DHT22;8967;47.984;7.842;2023-04-25T07:35:02;9.90;99.90
17697;DHT22;8967;47.984;7.842;2023-04-25T07:37:29;9.90;99.90
17697;DHT22;8967;47.984;7.842;2023-04-25T07:40:06;9.90;99.90
17697;DHT22;8967;47.984;7.842;2023-04-25T07:42:33;9.90;99.90
17697;DHT22;8967;47.984;7.842;2023-04-25T07:45:01;9.90;99.90
17697;DHT22;8967;47.984;7.842;2023-04-25T07:47:29;9.90;99.90
17697;DHT22;8967;47.984;7.842;2023-04-25T07:49:56;9.90;99.90
17697;DHT22;8967;47.984;7.842;2023-04-25T07:52:25;9.90;99.90
17697;DHT22;8967;47.984;7.842;2023-04-25T07:55:00;10.00;99.90
17697;DHT22;8967;47.984;7.842;2023-04-25T07:57:41;10.00;99.90
17697;DHT22;8967;47.984;7.842;2023-04-25T08:00:12;10.00;99.90
17697;DHT22;8967;47.984;7.842;2023-04-25T08:02:42;10.10;99.90
17697;DHT22;8967;47.984;7.842;2023-04-25T08:05:14;10.10;99.90
17697;DHT22;8967;47.984;7.842;2023-04-25T08:07:44;10.10;99.90
17697;DHT22;8967;47.984;7.842;2023-04-25T08:10:11;10.10;99.90
17697;DHT22;8967;47.984;7.842;2023-04-25T08:12:38;10.20;99.90
17697;DHT22;8967;47.984;7.842;2023-04-25T08:15:09;10.20;99.90
17697;DHT22;8967;47.984;7.842;2023-04-25T08:17:39;10.30;99.90
17697;DHT22;8967;47.984;7.842;2023-04-25T08:20:06;10.30;99.90
17697;DHT22;8967;47.984;7.842;2023-04-25T08:22:34;10.40;99.90
17697;DHT22;8967;47.984;7.842;2023-04-25T08:25:24;10.40;99.90
17697;DHT22;8967;47.984;7.842;2023-04-25T08:27:51;10.40;99.90
17697;DHT22;8967;47.984;7.842;2023-04-25T08:30:22;10.40;99.90
17697;DHT22;8967;47.984;7.842;2023-04-25T08:32:50;10.40;99.90
17697;DHT22;8967;47.984;7.842;2023-04-25T08:35:31;10.40;99.90
17697;DHT22;8967;47.984;7.842;2023-04-25T08:38:01;10.40;99.90
17697;DHT22;8967;47.984;7.842;2023-04-25T08:40:28;10.40;99.90
17697;DHT22;8967;47.984;7.842;2023-04-25T08:43:06;10.40;99.90
17697;DHT22;8967;47.984;7.842;2023-04-25T08:45:42;10.40;99.90
17697;DHT22;8967;47.984;7.842;2023-04-25T08:48:14;10.40;99.90
17697;DHT22;8967;47.984;7.842;2023-04-25T08:50:49;10.40;99.90
17697;DHT22;8967;47.984;7.842;2023-04-25T08:53:22;10.40;99.90
17697;DHT22;8967;47.984;7.842;2023-04-25T08:55:50;10.30;99.90
17697;DHT22;8967;47.984;7.842;2023-04-25T08:58:18;10.30;99.90
17697;DHT22;8967;47.984;7.842;2023-04-25T09:00:47;10.30;99.90
17697;DHT22;8967;47.984;7.842;2023-04-25T09:03:16;10.30;99.90
17697;DHT22;8967;47.984;7.842;2023-04-25T09:05:45;10.40;99.90
17697;DHT22;8967;47.984;7.842;2023-04-25T09:08:15;10.40;99.90
17697;DHT22;8967;47.984;7.842;2023-04-25T09:10:42;10.40;99.90
17697;DHT22;8967;47.984;7.842;2023-04-25T09:13:13;10.40;99.90
17697;DHT22;8967;47.984;7.842;2023-04-25T09:16:02;10.40;99.90
17697;DHT22;8967;47.984;7.842;2023-04-25T09:18:47;10.40;99.90
17697;DHT22;8967;47.984;7.842;2023-04-25T09:21:16;10.40;99.90
17697;DHT22;8967;47.984;7.842;2023-04-25T09:23:47;10.50;99.90
17697;DHT22;8967;47.984;7.842;2023-04-25T09:26:16;10.50;99.90
17697;DHT22;8967;47.984;7.842;2023-04-25T09:28:46;10.50;99.90
17697;DHT22;8967;47.984;7.842;2023-04-25T09:31:23;10.50;99.90
17697;DHT22;8967;47.984;7.842;2023-04-25T09:33:59;10.50;99.90
17697;DHT22;8967;47.984;7.842;2023-04-25T09:36:27;10.50;99.90
17697;DHT22;8967;47.984;7.842;2023-04-25T09:39:17;10.50;99.90
17697;DHT22;8967;47.984;7.842;2023-04-25T09:41:54;10.60;99.90
17697;DHT22;8967;47.984;7.842;2023-04-25T09:44:23;10.70;99.90
17697;DHT22;8967;47.984;7.842;2023-04-25T09:46:53;10.80;99.90
17697;DHT22;8967;47.984;7.842;2023-04-25T09:49:23;10.90;99.90
17697;DHT22;8967;47.984;7.842;2023-04-25T09:52:07;11.00;99.90
17697;DHT22;8967;47.984;7.842;2023-04-25T09:54:45;11.10;99.90
17697;DHT22;8967;47.984;7.842;2023-04-25T09:57:16;11.20;99.90
17697;DHT22;8967;47.984;7.842;2023-04-25T09:59:45;11.30;99.90
17697;DHT22;8967;47.984;7.842;2023-04-25T10:02:18;11.40;99.90
17697;DHT22;8967;47.984;7.842;2023-04-25T10:04:48;11.50;99.90
17697;DHT22;8967;47.984;7.842;2023-04-25T10:07:36;11.50;99.90
17697;DHT22;8967;47.984;7.842;2023-04-25T10:10:08;11.60;99.90
17697;DHT22;8967;47.984;7.842;2023-04-25T10:12:36;11.70;99.90
17697;DHT22;8967;47.984;7.842;2023-04-25T10:15:06;11.70;99.90
17697;DHT22;8967;47.984;7.842;2023-04-25T10:17:35;11.80;99.90
17697;DHT22;8967;47.984;7.842;2023-04-25T10:20:03;11.80;99.90
17697;DHT22;8967;47.984;7.842;2023-04-25T10:22:34;11.90;99.90
17697;DHT22;8967;47.984;7.842;2023-04-25T10:25:02;11.90;99.90
17697;DHT22;8967;47.984;7.842;2023-04-25T10:27:32;12.00;99.90
17697;DHT22;8967;47.984;7.842;2023-04-25T10:30:02;12.10;99.90
17697;DHT22;8967;47.984;7.842;2023-04-25T10:32:31;12.10;99.90
17697;DHT22;8967;47.984;7.842;2023-04-25T10:35:12;12.20;99.90
17697;DHT22;8967;47.984;7.842;2023-04-25T10:38:00;12.20;99.90
17697;DHT22;8967;47.984;7.842;2023-04-25T10:40:29;12.30;99.90
17697;DHT22;8967;47.984;7.842;2023-04-25T10:46:04;12.40;99.90
17697;DHT22;8967;47.984;7.842;2023-04-25T10:48:46;12.30;99.90
17697;DHT22;8967;47.984;7.842;2023-04-25T10:51:20;12.30;99.90
17697;DHT22;8967;47.984;7.842;2023-04-25T10:53:56;12.20;99.90
17697;DHT22;8967;47.984;7.842;2023-04-25T10:56:25;12.10;99.90
17697;DHT22;8967;47.984;7.842;2023-04-25T10:59:03;12.10;99.90
17697;DHT22;8967;47.984;7.842;2023-04-25T11:01:36;12.00;99.90
17697;DHT22;8967;47.984;7.842;2023-04-25T11:04:04;12.00;99.90
17697;DHT22;8967;47.984;7.842;2023-04-25T11:06:41;12.00;99.70
17697;DHT22;8967;47.984;7.842;2023-04-25T11:09:11;12.10;99.90
17697;DHT22;8967;47.984;7.842;2023-04-25T11:11:39;12.00;99.80
17697;DHT22;8967;47.984;7.842;2023-04-25T11:14:06;12.00;99.50
17697;DHT22;8967;47.984;7.842;2023-04-25T11:16:33;12.00;99.30
17697;DHT22;8967;47.984;7.842;2023-04-25T11:19:02;12.00;99.50
17697;DHT22;8967;47.984;7.842;2023-04-25T11:21:29;12.00;99.50
17697;DHT22;8967;47.984;7.842;2023-04-25T11:23:59;12.00;99.70
17697;DHT22;8967;47.984;7.842;2023-04-25T11:26:27;12.00;99.70
17697;DHT22;8967;47.984;7.842;2023-04-25T11:28:59;12.10;99.50
17697;DHT22;8967;47.984;7.842;2023-04-25T11:31:29;12.10;99.50
17697;DHT22;8967;47.984;7.842;2023-04-25T11:33:57;12.10;98.50
17697;DHT22;8967;47.984;7.842;2023-04-25T11:36:27;12.10;98.60
17697;DHT22;8967;47.984;7.842;2023-04-25T11:38:54;12.10;98.60
17697;DHT22;8967;47.984;7.842;2023-04-25T11:41:22;12.10;97.90
17697;DHT22;8967;47.984;7.842;2023-04-25T11:43:49;12.10;97.60
17697;DHT22;8967;47.984;7.842;2023-04-25T11:46:17;12.10;97.40
17697;DHT22;8967;47.984;7.842;2023-04-25T11:48:45;12.10;97.40
17697;DHT22;8967;47.984;7.842;2023-04-25T11:51:13;12.10;97.90
17697;DHT22;8967;47.984;7.842;2023-04-25T11:53:41;12.10;98.20
17697;DHT22;8967;47.984;7.842;2023-04-25T11:56:09;12.00;98.50
17697;DHT22;8967;47.984;7.842;2023-04-25T11:58:56;12.00;98.80
17697;DHT22;8967;47.984;7.842;2023-04-25T12:01:29;12.00;99.30
17697;DHT22;8967;47.984;7.842;2023-04-25T12:03:58;11.90;99.90
17697;DHT22;8967;47.984;7.842;2023-04-25T12:06:28;11.90;99.90
17697;DHT22;8967;47.984;7.842;2023-04-25T12:09:02;12.00;99.90
17697;DHT22;8967;47.984;7.842;2023-04-25T12:11:30;12.10;99.90
17697;DHT22;8967;47.984;7.842;2023-04-25T12:14:03;12.10;99.90
17697;DHT22;8967;47.984;7.842;2023-04-25T12:16:40;12.10;99.90
17697;DHT22;8967;47.984;7.842;2023-04-25T12:19:13;12.10;99.90
17697;DHT22;8967;47.984;7.842;2023-04-25T12:21:42;12.00;99.90
17697;DHT22;8967;47.984;7.842;2023-04-25T12:24:10;12.00;99.90
17697;DHT22;8967;47.984;7.842;2023-04-25T12:26:52;12.00;99.90
17697;DHT22;8967;47.984;7.842;2023-04-25T12:29:22;12.00;99.90
17697;DHT22;8967;47.984;7.842;2023-04-25T12:31:51;12.00;99.90
17697;DHT22;8967;47.984;7.842;2023-04-25T12:34:20;12.00;99.90
17697;DHT22;8967;47.984;7.842;2023-04-25T12:36:48;12.00;99.90
17697;DHT22;8967;47.984;7.842;2023-04-25T12:39:16;12.10;99.90
17697;DHT22;8967;47.984;7.842;2023-04-25T12:41:43;12.10;99.90
17697;DHT22;8967;47.984;7.842;2023-04-25T12:44:13;12.10;99.90
17697;DHT22;8967;47.984;7.842;2023-04-25T12:46:42;12.20;99.90
17697;DHT22;8967;47.984;7.842;2023-04-25T12:49:09;12.20;99.90
17697;DHT22;8967;47.984;7.842;2023-04-25T12:51:36;12.30;99.90
17697;DHT22;8967;47.984;7.842;2023-04-25T12:54:04;12.30;99.90
17697;DHT22;8967;47.984;7.842;2023-04-25T12:56:32;12.40;99.90
17697;DHT22;8967;47.984;7.842;2023-04-25T12:58:59;12.40;99.70
17697;DHT22;8967;47.984;7.842;2023-04-25T13:01:26;12.40;99.10
17697;DHT22;8967;47.984;7.842;2023-04-25T13:03:54;12.50;99.10
17697;DHT22;8967;47.984;7.842;2023-04-25T13:06:22;12.60;99.10
17697;DHT22;8967;47.984;7.842;2023-04-25T13:08:49;12.60;99.10
17697;DHT22;8967;47.984;7.842;2023-04-25T13:11:18;12.70;98.60
17697;DHT22;8967;47.984;7.842;2023-04-25T13:13:45;12.80;98.60
17697;DHT22;8967;47.984;7.842;2023-04-25T13:16:12;12.80;98.80
17697;DHT22;8967;47.984;7.842;2023-04-25T13:18:40;12.90;98.90
17697;DHT22;8967;47.984;7.842;2023-04-25T13:21:11;12.90;98.20
17697;DHT22;8967;47.984;7.842;2023-04-25T13:23:38;12.90;98.20
17697;DHT22;8967;47.984;7.842;2023-04-25T13:26:06;12.90;98.30
17697;DHT22;8967;47.984;7.842;2023-04-25T13:28:33;13.00;98.10
17697;DHT22;8967;47.984;7.842;2023-04-25T13:30:59;13.00;97.60
17697;DHT22;8967;47.984;7.842;2023-04-25T13:33:26;13.00;97.00
17697;DHT22;8967;47.984;7.842;2023-04-25T13:35:53;13.00;96.90
17697;DHT22;8967;47.984;7.842;2023-04-25T13:38:25;13.00;96.10
17697;DHT22;8967;47.984;7.842;2023-04-25T13:40:52;12.90;95.30
17697;DHT22;8967;47.984;7.842;2023-04-25T13:43:22;12.80;95.10
17697;DHT22;8967;47.984;7.842;2023-04-25T13:45:49;12.70;95.10
17697;DHT22;8967;47.984;7.842;2023-04-25T13:48:16;12.50;94.80
17697;DHT22;8967;47.984;7.842;2023-04-25T13:50:43;12.40;94.60
17697;DHT22;8967;47.984;7.842;2023-04-25T13:53:10;12.30;94.50
17697;DHT22;8967;47.984;7.842;2023-04-25T13:55:38;12.20;94.50
17697;DHT22;8967;47.984;7.842;2023-04-25T13:58:05;12.10;94.50
17697;DHT22;8967;47.984;7.842;2023-04-25T14:00:36;12.10;94.90
17697;DHT22;8967;47.984;7.842;2023-04-25T14:03:05;12.10;94.70
17697;DHT22;8967;47.984;7.842;2023-04-25T14:05:35;12.00;94.60
17697;DHT22;8967;47.984;7.842;2023-04-25T14:08:05;11.90;94.90
17697;DHT22;8967;47.984;7.842;2023-04-25T14:10:33;11.90;95.10
17697;DHT22;8967;47.984;7.842;2023-04-25T14:13:02;11.80;95.00
17697;DHT22;8967;47.984;7.842;2023-04-25T14:15:30;11.80;95.10
17697;DHT22;8967;47.984;7.842;2023-04-25T14:17:57;11.70;95.10
17697;DHT22;8967;47.984;7.842;2023-04-25T14:20:24;11.70;95.40
17697;DHT22;8967;47.984;7.842;2023-04-25T14:22:54;11.80;96.00
17697;DHT22;8967;47.984;7.842;2023-04-25T14:25:21;11.80;96.20
17697;DHT22;8967;47.984;7.842;2023-04-25T14:27:48;11.80;96.00
17697;DHT22;8967;47.984;7.842;2023-04-25T14:30:18;11.90;96.00
17697;DHT22;8967;47.984;7.842;2023-04-25T14:32:45;11.90;96.00
17697;DHT22;8967;47.984;7.842;2023-04-25T14:35:12;11.90;96.20
17697;DHT22;8967;47.984;7.842;2023-04-25T14:37:39;11.90;96.20
17697;DHT22;8967;47.984;7.842;2023-04-25T14:40:07;12.00;95.90
17697;DHT22;8967;47.984;7.842;2023-04-25T14:42:36;12.10;95.80
17697;DHT22;8967;47.984;7.842;2023-04-25T14:45:03;12.10;95.20
17697;DHT22;8967;47.984;7.842;2023-04-25T14:47:32;12.10;95.30
17697;DHT22;8967;47.984;7.842;2023-04-25T14:49:59;12.20;95.40
17697;DHT22;8967;47.984;7.842;2023-04-25T14:52:27;12.20;95.20
17697;DHT22;8967;47.984;7.842;2023-04-25T14:54:53;12.30;95.10
17697;DHT22;8967;47.984;7.842;2023-04-25T14:57:20;12.30;95.00
17697;DHT22;8967;47.984;7.842;2023-04-25T14:59:47;12.30;94.90
17697;DHT22;8967;47.984;7.842;2023-04-25T15:02:17;12.30;94.80
17697;DHT22;8967;47.984;7.842;2023-04-25T15:04:45;12.30;94.40
17697;DHT22;8967;47.984;7.842;2023-04-25T15:07:13;12.30;94.30
17697;DHT22;8967;47.984;7.842;2023-04-25T15:09:40;12.30;93.80
17697;DHT22;8967;47.984;7.842;2023-04-25T15:12:07;12.20;93.90
17697;DHT22;8967;47.984;7.842;2023-04-25T15:14:34;12.20;94.80
17697;DHT22;8967;47.984;7.842;2023-04-25T15:17:01;12.10;95.10
17697;DHT22;8967;47.984;7.842;2023-04-25T15:19:28;12.00;95.60
17697;DHT22;8967;47.984;7.842;2023-04-25T15:21:58;11.90;95.80
17697;DHT22;8967;47.984;7.842;2023-04-25T15:24:27;11.80;96.40
17697;DHT22;8967;47.984;7.842;2023-04-25T15:26:56;11.70;96.80
17697;DHT22;8967;47.984;7.842;2023-04-25T15:29:23;11.60;97.40
17697;DHT22;8967;47.984;7.842;2023-04-25T15:31:51;11.50;98.00
17697;DHT22;8967;47.984;7.842;2023-04-25T15:34:20;11.50;98.30
17697;DHT22;8967;47.984;7.842;2023-04-25T15:36:47;11.40;98.50
17697;DHT22;8967;47.984;7.842;2023-04-25T15:39:16;11.30;98.50
17697;DHT22;8967;47.984;7.842;2023-04-25T15:41:43;11.30;98.80
17697;DHT22;8967;47.984;7.842;2023-04-25T15:44:10;11.20;99.10
17697;DHT22;8967;47.984;7.842;2023-04-25T15:46:37;11.20;99.90
17697;DHT22;8967;47.984;7.842;2023-04-25T15:49:04;11.20;99.90
17697;DHT22;8967;47.984;7.842;2023-04-25T15:51:31;11.20;99.90
17697;DHT22;8967;47.984;7.842;2023-04-25T15:53:59;11.20;99.90
17697;DHT22;8967;47.984;7.842;2023-04-25T15:56:30;11.20;99.90
17697;DHT22;8967;47.984;7.842;2023-04-25T15:58:56;11.20;99.90
17697;DHT22;8967;47.984;7.842;2023-04-25T16:01:24;11.20;99.90
17697;DHT22;8967;47.984;7.842;2023-04-25T16:03:55;11.10;99.90
17697;DHT22;8967;47.984;7.842;2023-04-25T16:06:22;11.10;99.90
17697;DHT22;8967;47.984;7.842;2023-04-25T16:08:50;11.10;99.90
17697;DHT22;8967;47.984;7.842;2023-04-25T16:11:17;11.10;99.90
17697;DHT22;8967;47.984;7.842;2023-04-25T16:13:46;11.10;99.90